Time,TemperatureF,DewpointF,PressureIn,WindDirection,WindDirectionDegrees,WindSpeedMPH,WindSpeedGustMPH,Humidity,HourlyPrecipIn,Conditions,Clouds,dailyrainin,SoftwareType,DateUTC
2013-04-15 00:00:00,63.3,22.8,29.98,ESE,110,0.0,0.0,21,0.00,,---,0.00,VWS V14.01,2013-04-15 04:00:00,
2013-04-15 00:01:00,63.1,22.6,29.98,ESE,110,0.0,0.0,21,0.00,,---,0.00,VWS V14.01,2013-04-15 04:01:00,
2013-04-15 00:06:00,62.2,21.9,29.98,SW,232,0.0,0.0,21,0.00,,---,0.00,VWS V14.01,2013-04-15 04:06:00,
2013-04-15 00:11:00,62.1,24.9,29.98,East,91,4.0,4.0,24,0.00,,---,0.00,VWS V14.01,2013-04-15 04:11:00,
2013-04-15 00:16:00,61.3,24.3,29.98,NNE,23,0.0,0.0,24,0.00,,---,0.00,VWS V14.01,2013-04-15 04:16:00,
2013-04-15 00:21:00,60.6,27.4,29.98,NE,49,0.0,0.0,28,0.00,,---,0.00,VWS V14.01,2013-04-15 04:21:00,
2013-04-15 00:26:00,59.5,28.1,29.98,West,268,2.2,2.2,30,0.00,,---,0.00,VWS V14.01,2013-04-15 04:26:00,
2013-04-15 00:31:00,58.5,33.0,29.98,NE,51,3.1,3.6,38,0.00,,---,0.00,VWS V14.01,2013-04-15 04:31:00,
2013-04-15 00:37:00,56.8,35.2,29.98,NE,51,4.0,4.0,44,0.00,,---,0.00,VWS V14.01,2013-04-15 04:37:00,
2013-04-15 00:42:00,56.1,31.5,30.01,WSW,251,3.1,3.6,39,0.00,,---,0.00,VWS V14.01,2013-04-15 04:42:00,
2013-04-15 00:47:00,56.3,31.7,30.01,SSW,205,4.0,10.5,39,0.00,,---,0.00,VWS V14.01,2013-04-15 04:47:00,
2013-04-15 00:52:00,56.5,36.0,30.01,NE,56,2.7,3.1,46,0.00,,---,0.00,VWS V14.01,2013-04-15 04:52:00,
2013-04-15 00:57:00,55.0,36.8,30.01,ENE,71,2.7,3.6,50,0.00,,---,0.00,VWS V14.01,2013-04-15 04:57:00,
2013-04-15 01:02:00,54.3,37.6,30.01,NE,52,2.7,3.6,53,0.00,,---,0.00,VWS V14.01,2013-04-15 05:02:00,
2013-04-15 01:07:00,53.2,38.9,30.01,NE,53,0.0,0.0,58,0.00,,---,0.00,VWS V14.01,2013-04-15 05:07:00,
2013-04-15 01:12:00,52.9,39.4,30.01,NE,53,2.7,3.1,60,0.00,,---,0.00,VWS V14.01,2013-04-15 05:12:00,
2013-04-15 01:17:00,52.5,40.3,30.01,ENE,61,2.7,2.7,63,0.00,,---,0.00,VWS V14.01,2013-04-15 05:17:00,
2013-04-15 01:22:00,52.3,40.1,30.01,ENE,61,0.0,0.0,63,0.00,,---,0.00,VWS V14.01,2013-04-15 05:22:00,
2013-04-15 01:27:00,52.2,40.4,30.01,North,3,2.2,2.7,64,0.00,,---,0.00,VWS V14.01,2013-04-15 05:27:00,
2013-04-15 01:33:00,52.0,40.6,30.01,ENE,61,0.0,0.0,65,0.00,,---,0.00,VWS V14.01,2013-04-15 05:33:00,
2013-04-15 01:38:00,52.2,40.4,30.01,SW,236,0.0,0.0,64,0.04,,---,0.04,VWS V14.01,2013-04-15 05:38:00,
2013-04-15 01:43:00,52.2,40.4,30.01,SW,236,0.0,0.0,64,0.04,,---,0.04,VWS V14.01,2013-04-15 05:43:00,
2013-04-15 01:48:00,52.0,41.0,30.01,SW,236,0.0,0.0,66,0.04,,---,0.04,VWS V14.01,2013-04-15 05:48:00,
2013-04-15 01:53:00,51.8,41.2,30.01,SW,236,0.0,0.0,67,0.04,,---,0.04,VWS V14.01,2013-04-15 05:53:00,
2013-04-15 01:58:00,51.8,41.6,30.03,East,88,0.0,0.0,68,0.04,,---,0.04,VWS V14.01,2013-04-15 05:58:00,
2013-04-15 02:03:00,51.8,41.6,30.03,East,87,0.0,0.0,68,0.04,,---,0.04,VWS V14.01,2013-04-15 06:03:00,
2013-04-15 02:08:00,51.8,41.6,30.03,East,90,0.0,0.0,68,0.04,,---,0.04,VWS V14.01,2013-04-15 06:08:00,
2013-04-15 02:13:00,51.6,42.2,30.03,East,90,0.0,0.0,70,0.04,,---,0.04,VWS V14.01,2013-04-15 06:13:00,
2013-04-15 02:18:00,51.6,42.5,30.03,East,91,0.0,0.0,71,0.04,,---,0.04,VWS V14.01,2013-04-15 06:18:00,
2013-04-15 02:23:00,51.4,42.4,30.03,WSW,254,0.0,0.0,71,0.04,,---,0.04,VWS V14.01,2013-04-15 06:23:00,
2013-04-15 02:28:00,51.6,42.5,30.03,West,270,0.0,0.0,71,0.04,,---,0.04,VWS V14.01,2013-04-15 06:28:00,
2013-04-15 02:33:00,51.6,42.5,30.03,West,270,0.0,0.0,71,0.04,,---,0.04,VWS V14.01,2013-04-15 06:33:00,
2013-04-15 02:38:00,51.4,42.7,30.03,West,270,0.0,0.0,72,0.00,,---,0.04,VWS V14.01,2013-04-15 06:38:00,
2013-04-15 02:43:00,51.3,42.5,30.03,West,270,0.0,0.0,72,0.00,,---,0.04,VWS V14.01,2013-04-15 06:43:00,
2013-04-15 02:48:00,51.3,42.9,30.03,West,270,0.0,0.0,73,0.00,,---,0.04,VWS V14.01,2013-04-15 06:48:00,
2013-04-15 02:54:00,51.1,42.7,30.03,West,270,0.0,0.0,73,0.04,,---,0.08,VWS V14.01,2013-04-15 06:54:00,
2013-04-15 02:59:00,51.1,43.1,30.03,West,270,0.0,0.0,74,0.04,,---,0.08,VWS V14.01,2013-04-15 06:59:00,
2013-04-15 03:04:00,51.1,43.1,30.03,West,270,0.0,0.0,74,0.04,,---,0.08,VWS V14.01,2013-04-15 07:04:00,
2013-04-15 03:41:00,50.7,43.4,30.03,WNW,303,0.0,0.0,76,0.12,,---,0.16,VWS V14.01,2013-04-15 07:41:00,
2013-04-15 03:42:00,50.7,43.4,30.01,WNW,303,0.0,0.0,76,0.12,,---,0.16,VWS V14.01,2013-04-15 07:42:00,
2013-04-15 03:47:00,50.7,43.4,30.01,West,274,2.7,2.7,76,0.12,,---,0.16,VWS V14.01,2013-04-15 07:47:00,
2013-04-15 03:48:00,50.7,43.4,30.01,West,267,2.7,3.1,76,0.12,,---,0.16,VWS V14.01,2013-04-15 07:48:00,
2013-04-15 03:53:00,50.7,44.1,30.01,West,265,0.0,0.0,78,0.12,,---,0.16,VWS V14.01,2013-04-15 07:53:00,
2013-04-15 03:59:00,50.7,44.1,30.03,WNW,286,0.0,2.2,78,0.08,,---,0.16,VWS V14.01,2013-04-15 07:59:00,
2013-04-15 04:04:00,50.9,44.6,30.03,WNW,286,0.0,0.0,79,0.12,,---,0.20,VWS V14.01,2013-04-15 08:04:00,
2013-04-15 04:09:00,50.7,43.8,30.03,WNW,284,3.1,8.3,77,0.12,,---,0.20,VWS V14.01,2013-04-15 08:09:00,
2013-04-15 04:14:00,51.3,43.6,30.03,WSW,257,5.8,8.1,75,0.12,,---,0.20,VWS V14.01,2013-04-15 08:14:00,
2013-04-15 04:19:00,51.4,42.7,30.03,WNW,294,6.3,8.1,72,0.12,,---,0.20,VWS V14.01,2013-04-15 08:19:00,
2013-04-15 04:24:00,51.3,42.5,30.03,West,273,2.2,6.3,72,0.12,,---,0.24,VWS V14.01,2013-04-15 08:24:00,
2013-04-15 04:29:00,51.3,42.2,30.01,West,269,10.5,10.5,71,0.12,,---,0.24,VWS V14.01,2013-04-15 08:29:00,
2013-04-15 04:34:00,51.4,42.0,30.01,WSW,257,6.3,6.3,70,0.12,,---,0.24,VWS V14.01,2013-04-15 08:34:00,
2013-04-15 04:36:00,51.4,41.6,30.01,WNW,286,4.9,13.2,69,0.12,,---,0.24,VWS V14.01,2013-04-15 08:36:00,
2013-04-15 04:40:00,51.4,42.0,30.01,WSW,250,6.3,13.6,70,0.12,,---,0.24,VWS V14.01,2013-04-15 08:40:00,
2013-04-15 04:45:00,51.4,41.6,30.01,West,276,4.9,4.9,69,0.12,,---,0.28,VWS V14.01,2013-04-15 08:45:00,
2013-04-15 04:50:00,51.4,42.0,30.01,WNW,295,5.4,8.1,70,0.12,,---,0.28,VWS V14.01,2013-04-15 08:50:00,
2013-04-15 04:55:00,51.4,41.6,30.01,NW,319,7.2,9.2,69,0.12,,---,0.28,VWS V14.01,2013-04-15 08:55:00,
2013-04-15 05:00:00,51.4,42.0,30.03,WNW,303,3.1,3.6,70,0.12,,---,0.28,VWS V14.01,2013-04-15 09:00:00,
2013-04-15 05:06:00,51.3,41.8,30.03,WNW,303,2.7,2.7,70,0.08,,---,0.28,VWS V14.01,2013-04-15 09:06:00,
2013-04-15 05:11:00,51.1,41.7,30.03,West,267,0.0,0.0,70,0.08,,---,0.28,VWS V14.01,2013-04-15 09:11:00,
2013-04-15 05:16:00,50.9,42.2,30.03,West,264,4.0,4.0,72,0.08,,---,0.28,VWS V14.01,2013-04-15 09:16:00,
2013-04-15 05:21:00,50.7,42.8,30.03,WSW,241,0.0,2.7,74,0.12,,---,0.31,VWS V14.01,2013-04-15 09:21:00,
2013-04-15 05:26:00,50.4,42.4,30.03,WSW,241,0.0,0.0,74,0.08,,---,0.31,VWS V14.01,2013-04-15 09:26:00,
2013-04-15 05:31:00,50.2,42.6,30.03,WSW,241,0.0,0.0,75,0.08,,---,0.31,VWS V14.01,2013-04-15 09:31:00,
2013-04-15 05:37:00,50.2,42.6,30.03,WSW,241,0.0,0.0,75,0.12,,---,0.35,VWS V14.01,2013-04-15 09:37:00,
2013-04-15 05:42:00,50.0,42.4,30.03,WSW,241,0.0,0.0,75,0.12,,---,0.35,VWS V14.01,2013-04-15 09:42:00,
2013-04-15 05:47:00,50.0,42.7,30.03,WSW,241,0.0,0.0,76,0.08,,---,0.35,VWS V14.01,2013-04-15 09:47:00,
2013-04-15 05:52:00,49.8,42.6,30.03,WSW,241,0.0,0.0,76,0.08,,---,0.35,VWS V14.01,2013-04-15 09:52:00,
2013-04-15 05:57:00,50.0,42.7,30.03,WSW,241,0.0,0.0,76,0.12,,---,0.39,VWS V14.01,2013-04-15 09:57:00,
2013-04-15 06:02:00,50.0,43.1,30.03,SW,232,5.4,5.4,77,0.12,,---,0.39,VWS V14.01,2013-04-15 10:02:00,
2013-04-15 06:07:00,49.8,43.6,30.03,SW,233,10.1,10.1,79,0.12,,---,0.39,VWS V14.01,2013-04-15 10:07:00,
2013-04-15 06:12:00,49.8,43.2,30.03,ENE,65,6.3,6.3,78,0.16,,---,0.43,VWS V14.01,2013-04-15 10:12:00,
2013-04-15 06:17:00,50.0,42.4,30.03,North,353,4.0,5.8,75,0.16,,---,0.43,VWS V14.01,2013-04-15 10:17:00,
2013-04-15 06:22:00,50.2,41.9,30.03,West,262,5.8,5.8,73,0.12,,---,0.43,VWS V14.01,2013-04-15 10:22:00,
2013-04-15 06:27:00,50.2,41.5,30.03,ENE,62,0.0,0.0,72,0.12,,---,0.43,VWS V14.01,2013-04-15 10:27:00,
2013-04-15 06:32:00,50.0,41.3,30.03,West,273,0.0,0.0,72,0.12,,---,0.43,VWS V14.01,2013-04-15 10:32:00,
2013-04-15 06:37:00,49.6,41.0,30.03,West,274,0.0,0.0,72,0.08,,---,0.43,VWS V14.01,2013-04-15 10:37:00,
2013-04-15 06:42:00,49.5,41.2,30.03,ENE,62,0.0,0.0,73,0.08,,---,0.43,VWS V14.01,2013-04-15 10:42:00,
2013-04-15 06:47:00,49.3,41.4,30.03,ENE,62,0.0,0.0,74,0.08,,---,0.43,VWS V14.01,2013-04-15 10:47:00,
2013-04-15 06:53:00,49.1,41.2,30.03,ENE,62,0.0,0.0,74,0.08,,---,0.43,VWS V14.01,2013-04-15 10:53:00,
2013-04-15 06:58:00,49.1,41.5,30.03,ENE,62,0.0,0.0,75,0.04,,---,0.43,VWS V14.01,2013-04-15 10:58:00,
2013-04-15 07:03:00,49.1,41.5,30.03,WNW,302,0.0,0.0,75,0.04,,---,0.43,VWS V14.01,2013-04-15 11:03:00,
2013-04-15 07:08:00,49.1,41.9,30.03,WSW,237,0.0,0.0,76,0.04,,---,0.43,VWS V14.01,2013-04-15 11:08:00,
2013-04-15 07:13:00,49.1,41.9,30.06,East,99,0.0,4.9,76,0.00,,---,0.43,VWS V14.01,2013-04-15 11:13:00,
2013-04-15 07:18:00,49.1,42.2,30.06,NNE,17,3.1,4.0,77,0.04,,---,0.47,VWS V14.01,2013-04-15 11:18:00,
2013-04-15 07:23:00,49.3,42.4,30.06,North,350,3.6,3.6,77,0.04,,---,0.47,VWS V14.01,2013-04-15 11:23:00,
2013-04-15 07:28:00,49.5,42.6,30.06,NE,55,0.0,0.0,77,0.04,,---,0.47,VWS V14.01,2013-04-15 11:28:00,
2013-04-15 07:33:00,49.5,42.6,30.06,NE,45,0.0,0.0,77,0.04,,---,0.47,VWS V14.01,2013-04-15 11:33:00,
2013-04-15 07:38:00,49.3,42.0,30.06,NE,45,0.0,0.0,76,0.04,,---,0.47,VWS V14.01,2013-04-15 11:38:00,
2013-04-15 07:43:00,49.3,42.4,30.06,NNE,17,3.6,3.6,77,0.04,,---,0.47,VWS V14.01,2013-04-15 11:43:00,
2013-04-15 07:48:00,49.5,42.6,30.06,WNW,298,4.0,4.0,77,0.04,,---,0.47,VWS V14.01,2013-04-15 11:48:00,
2013-04-15 07:53:00,49.5,42.6,30.06,North,353,0.0,0.0,77,0.04,,---,0.47,VWS V14.01,2013-04-15 11:53:00,
2013-04-15 07:58:00,49.5,42.6,30.06,NE,55,0.0,0.0,77,0.04,,---,0.47,VWS V14.01,2013-04-15 11:58:00,
2013-04-15 08:04:00,49.5,42.6,30.06,NNW,335,0.0,3.6,77,0.08,,---,0.51,VWS V14.01,2013-04-15 12:04:00,
2013-04-15 08:09:00,49.3,42.7,30.06,NNW,338,0.0,0.0,78,0.08,,---,0.51,VWS V14.01,2013-04-15 12:09:00,
2013-04-15 08:14:00,49.3,42.7,30.06,SW,222,0.0,0.0,78,0.08,,---,0.51,VWS V14.01,2013-04-15 12:14:00,
2013-04-15 08:19:00,49.3,42.7,30.06,SW,223,2.7,2.7,78,0.04,,---,0.51,VWS V14.01,2013-04-15 12:19:00,
2013-04-15 08:24:00,49.1,42.5,30.06,SW,224,0.0,0.0,78,0.04,,---,0.51,VWS V14.01,2013-04-15 12:24:00,
2013-04-15 08:29:00,49.1,42.5,30.06,SW,224,0.0,0.0,78,0.04,,---,0.51,VWS V14.01,2013-04-15 12:29:00,
2013-04-15 08:34:00,49.1,42.5,30.06,SW,223,2.7,3.1,78,0.04,,---,0.51,VWS V14.01,2013-04-15 12:34:00,
2013-04-15 08:40:00,49.1,42.9,30.06,WSW,245,2.7,3.6,79,0.04,,---,0.51,VWS V14.01,2013-04-15 12:40:00,
2013-04-15 08:45:00,49.3,43.4,30.06,WSW,245,0.0,0.0,80,0.04,,---,0.51,VWS V14.01,2013-04-15 12:45:00,
2013-04-15 08:50:00,49.3,43.4,30.06,WSW,244,0.0,0.0,80,0.04,,---,0.51,VWS V14.01,2013-04-15 12:50:00,
2013-04-15 08:55:00,49.3,43.7,30.06,WSW,244,0.0,0.0,81,0.04,,---,0.51,VWS V14.01,2013-04-15 12:55:00,
2013-04-15 09:00:00,49.5,43.9,30.03,WSW,244,0.0,0.0,81,0.04,,---,0.51,VWS V14.01,2013-04-15 13:00:00,
2013-04-15 09:05:00,49.5,44.2,30.03,North,1,3.6,5.4,82,0.00,,---,0.51,VWS V14.01,2013-04-15 13:05:00,
2013-04-15 09:10:00,49.6,44.7,30.03,SW,226,3.1,3.6,83,0.00,,---,0.51,VWS V14.01,2013-04-15 13:10:00,
2013-04-15 09:15:00,49.6,44.7,30.06,SW,229,0.0,0.0,83,0.04,,---,0.55,VWS V14.01,2013-04-15 13:15:00,
2013-04-15 09:20:00,49.6,44.7,30.06,SW,232,2.7,2.7,83,0.04,,---,0.55,VWS V14.01,2013-04-15 13:20:00,
2013-04-15 09:26:00,49.5,44.5,30.06,SW,222,3.1,3.1,83,0.04,,---,0.55,VWS V14.01,2013-04-15 13:26:00,
2013-04-15 09:31:00,49.5,44.5,30.06,South,186,0.0,0.0,83,0.04,,---,0.55,VWS V14.01,2013-04-15 13:31:00,
2013-04-15 09:36:00,49.5,44.5,30.06,West,271,0.0,0.0,83,0.04,,---,0.55,VWS V14.01,2013-04-15 13:36:00,
2013-04-15 09:42:00,49.3,44.3,30.06,West,271,0.0,0.0,83,0.04,,---,0.55,VWS V14.01,2013-04-15 13:42:00,
2013-04-15 09:47:00,49.5,44.8,30.06,SSW,203,0.0,0.0,84,0.04,,---,0.55,VWS V14.01,2013-04-15 13:47:00,
2013-04-15 09:52:00,49.5,44.8,30.06,SSW,203,0.0,0.0,84,0.04,,---,0.55,VWS V14.01,2013-04-15 13:52:00,
2013-04-15 09:57:00,49.6,45.0,30.06,NW,315,0.0,3.1,84,0.04,,---,0.55,VWS V14.01,2013-04-15 13:57:00,
2013-04-15 10:02:00,49.5,44.8,30.06,East,80,3.6,3.6,84,0.04,,---,0.55,VWS V14.01,2013-04-15 14:02:00,
2013-04-15 10:07:00,49.6,45.3,30.06,SW,222,0.0,0.0,85,0.04,,---,0.55,VWS V14.01,2013-04-15 14:07:00,
2013-04-15 10:12:00,49.8,45.5,30.06,ESE,120,0.0,0.0,85,0.00,,---,0.55,VWS V14.01,2013-04-15 14:12:00,
2013-04-15 10:17:00,49.8,45.5,30.06,SSW,209,2.7,2.7,85,0.00,,---,0.55,VWS V14.01,2013-04-15 14:17:00,
2013-04-15 10:23:00,49.8,45.5,30.06,SSW,209,0.0,0.0,85,0.00,,---,0.55,VWS V14.01,2013-04-15 14:23:00,
2013-04-15 10:28:00,49.8,45.5,30.09,SW,225,3.6,3.6,85,0.00,,---,0.55,VWS V14.01,2013-04-15 14:28:00,
2013-04-15 10:33:00,49.6,45.3,30.09,SW,236,0.0,0.0,85,0.00,,---,0.55,VWS V14.01,2013-04-15 14:33:00,
2013-04-15 10:38:00,49.6,45.3,30.09,SW,223,2.2,3.1,85,0.00,,---,0.55,VWS V14.01,2013-04-15 14:38:00,
2013-04-15 10:43:00,49.5,45.2,30.09,SW,223,0.0,0.0,85,0.00,,---,0.55,VWS V14.01,2013-04-15 14:43:00,
2013-04-15 10:48:00,49.5,45.2,30.09,West,262,2.2,2.7,85,0.00,,---,0.55,VWS V14.01,2013-04-15 14:48:00,
2013-04-15 10:53:00,49.5,45.2,30.09,SE,131,0.0,0.0,85,0.00,,---,0.55,VWS V14.01,2013-04-15 14:53:00,
2013-04-15 10:58:00,49.5,45.2,30.09,WSW,240,0.0,0.0,85,0.00,,---,0.55,VWS V14.01,2013-04-15 14:58:00,
2013-04-15 11:03:00,49.6,45.3,30.09,WSW,250,2.7,2.7,85,0.00,,---,0.55,VWS V14.01,2013-04-15 15:03:00,
2013-04-15 11:09:00,49.6,45.6,30.09,South,191,3.1,3.1,86,0.00,,---,0.55,VWS V14.01,2013-04-15 15:09:00,
2013-04-15 11:14:00,49.6,45.6,30.09,East,92,0.0,0.0,86,0.00,,---,0.55,VWS V14.01,2013-04-15 15:14:00,
2013-04-15 11:19:00,49.6,45.6,30.09,ESE,107,2.2,2.2,86,0.00,,---,0.55,VWS V14.01,2013-04-15 15:19:00,
2013-04-15 11:24:00,49.6,45.3,30.09,ENE,68,0.0,0.0,85,0.00,,---,0.55,VWS V14.01,2013-04-15 15:24:00,
2013-04-15 11:29:00,49.6,45.3,30.09,West,263,0.0,2.7,85,0.00,,---,0.55,VWS V14.01,2013-04-15 15:29:00,
2013-04-15 11:34:00,49.8,45.5,30.09,WSW,238,0.0,0.0,85,0.00,,---,0.55,VWS V14.01,2013-04-15 15:34:00,
2013-04-15 11:39:00,49.6,45.3,30.09,WSW,238,0.0,0.0,85,0.00,,---,0.55,VWS V14.01,2013-04-15 15:39:00,
2013-04-15 11:44:00,49.8,45.8,30.09,ENE,72,2.7,2.7,86,0.00,,---,0.55,VWS V14.01,2013-04-15 15:44:00,
2013-04-15 11:49:00,49.8,45.8,30.09,ENE,72,0.0,4.0,86,0.00,,---,0.55,VWS V14.01,2013-04-15 15:49:00,
2013-04-15 11:54:00,49.8,45.5,30.09,NW,304,0.0,0.0,85,0.00,,---,0.55,VWS V14.01,2013-04-15 15:54:00,
2013-04-15 11:59:00,50.0,45.7,30.09,NNW,329,0.0,0.0,85,0.00,,---,0.55,VWS V14.01,2013-04-15 15:59:00,
2013-04-15 12:04:00,50.2,45.8,30.09,NNW,329,0.0,0.0,85,0.00,,---,0.55,VWS V14.01,2013-04-15 16:04:00,
2013-04-15 12:09:00,50.2,45.8,30.09,ENE,62,0.0,2.2,85,0.00,,---,0.55,VWS V14.01,2013-04-15 16:09:00,
2013-04-15 12:14:00,50.2,45.8,30.09,SSE,166,0.0,0.0,85,0.00,,---,0.55,VWS V14.01,2013-04-15 16:14:00,
2013-04-15 12:20:00,50.2,45.5,30.09,SSE,166,0.0,0.0,84,0.00,,---,0.55,VWS V14.01,2013-04-15 16:20:00,
2013-04-15 12:25:00,50.2,45.5,30.09,ESE,117,0.0,0.0,84,0.00,,---,0.55,VWS V14.01,2013-04-15 16:25:00,
2013-04-15 12:30:00,50.2,45.5,30.09,East,95,2.2,3.6,84,0.00,,---,0.55,VWS V14.01,2013-04-15 16:30:00,
2013-04-15 12:35:00,50.2,45.8,30.09,East,95,0.0,0.0,85,0.00,,---,0.55,VWS V14.01,2013-04-15 16:35:00,
2013-04-15 12:40:00,50.2,45.5,30.09,NE,55,0.0,0.0,84,0.00,,---,0.55,VWS V14.01,2013-04-15 16:40:00,
2013-04-15 12:45:00,50.2,45.5,30.09,NE,55,0.0,0.0,84,0.00,,---,0.55,VWS V14.01,2013-04-15 16:45:00,
2013-04-15 12:50:00,50.4,45.7,30.09,ESE,104,0.0,0.0,84,0.00,,---,0.55,VWS V14.01,2013-04-15 16:50:00,
2013-04-15 12:55:00,50.4,45.7,30.09,SW,214,3.6,4.0,84,0.00,,---,0.55,VWS V14.01,2013-04-15 16:55:00,
2013-04-15 13:00:00,50.4,45.7,30.09,SW,220,5.8,5.8,84,0.00,,---,0.55,VWS V14.01,2013-04-15 17:00:00,
2013-04-15 13:05:00,50.4,45.7,30.09,WSW,245,3.6,4.5,84,0.00,,---,0.55,VWS V14.01,2013-04-15 17:05:00,
2013-04-15 13:11:00,50.7,45.8,30.09,East,79,0.0,2.2,83,0.00,,---,0.55,VWS V14.01,2013-04-15 17:11:00,
2013-04-15 13:16:00,50.9,45.9,30.09,SW,220,0.0,0.0,83,0.00,,---,0.55,VWS V14.01,2013-04-15 17:16:00,
2013-04-15 13:21:00,51.1,46.1,30.09,WSW,250,2.2,3.6,83,0.00,,---,0.55,VWS V14.01,2013-04-15 17:21:00,
2013-04-15 13:22:00,51.1,46.1,30.09,WSW,250,0.0,2.2,83,0.00,,---,0.55,VWS V14.01,2013-04-15 17:22:00,
2013-04-15 13:25:00,51.3,46.6,30.09,South,183,3.6,3.6,84,0.00,,---,0.55,VWS V14.01,2013-04-15 17:25:00,
2013-04-15 13:30:00,51.6,47.0,30.09,SW,214,0.0,0.0,84,0.00,,---,0.55,VWS V14.01,2013-04-15 17:30:00,
2013-04-15 13:35:00,51.6,47.0,30.09,SSW,203,0.0,0.0,84,0.00,,---,0.55,VWS V14.01,2013-04-15 17:35:00,
2013-04-15 13:40:00,51.8,47.1,30.09,SW,228,0.0,0.0,84,0.00,,---,0.55,VWS V14.01,2013-04-15 17:40:00,
2013-04-15 13:45:00,51.8,47.1,30.09,South,189,2.2,3.6,84,0.00,,---,0.55,VWS V14.01,2013-04-15 17:45:00,
2013-04-15 13:50:00,51.8,46.8,30.09,South,188,0.0,0.0,83,0.00,,---,0.55,VWS V14.01,2013-04-15 17:50:00,
2013-04-15 13:55:00,52.0,47.0,30.09,SW,225,2.2,4.0,83,0.00,,---,0.55,VWS V14.01,2013-04-15 17:55:00,
2013-04-15 14:00:00,52.0,46.7,30.09,South,180,0.0,0.0,82,0.00,,---,0.55,VWS V14.01,2013-04-15 18:00:00,
2013-04-15 14:05:00,51.8,46.2,30.09,WSW,240,2.7,2.7,81,0.00,,---,0.55,VWS V14.01,2013-04-15 18:05:00,
2013-04-15 14:10:00,51.8,45.8,30.09,WSW,241,0.0,0.0,80,0.00,,---,0.55,VWS V14.01,2013-04-15 18:10:00,
2013-04-15 14:15:00,51.8,45.2,30.09,WSW,238,0.0,0.0,78,0.00,,---,0.55,VWS V14.01,2013-04-15 18:15:00,
2013-04-15 14:20:00,52.0,45.0,30.09,East,84,0.0,0.0,77,0.00,,---,0.55,VWS V14.01,2013-04-15 18:20:00,
2013-04-15 14:25:00,51.8,44.5,30.09,ENE,68,3.6,4.0,76,0.00,,---,0.55,VWS V14.01,2013-04-15 18:25:00,
2013-04-15 14:29:00,51.8,44.1,30.09,ENE,61,0.0,3.1,75,0.00,,---,0.55,VWS V14.01,2013-04-15 18:29:00,
2013-04-15 14:31:00,51.8,44.1,30.09,ENE,61,0.0,0.0,75,0.00,,---,0.55,VWS V14.01,2013-04-15 18:31:00,
2013-04-15 14:36:00,51.8,44.1,30.09,ENE,77,2.7,3.6,75,0.00,,---,0.55,VWS V14.01,2013-04-15 18:36:00,
2013-04-15 14:41:00,52.0,44.3,30.09,ESE,103,2.7,2.7,75,0.00,,---,0.55,VWS V14.01,2013-04-15 18:41:00,
2013-04-15 14:46:00,52.2,44.5,30.09,East,79,2.2,2.7,75,0.00,,---,0.55,VWS V14.01,2013-04-15 18:46:00,
2013-04-15 14:51:00,52.3,44.7,30.09,NE,41,0.0,0.0,75,0.00,,---,0.55,VWS V14.01,2013-04-15 18:51:00,
2013-04-15 14:56:00,52.5,44.5,30.09,South,170,2.7,3.1,74,0.00,,---,0.55,VWS V14.01,2013-04-15 18:56:00,
2013-04-15 15:01:00,52.9,44.5,30.09,South,170,0.0,0.0,73,0.00,,---,0.55,VWS V14.01,2013-04-15 19:01:00,
2013-04-15 15:06:00,53.1,44.3,30.09,South,170,0.0,0.0,72,0.00,,---,0.55,VWS V14.01,2013-04-15 19:06:00,
2013-04-15 15:11:00,53.4,44.3,30.09,East,97,0.0,2.2,71,0.00,,---,0.55,VWS V14.01,2013-04-15 19:11:00,
2013-04-15 15:16:00,53.6,43.3,30.09,ENE,68,6.3,6.3,68,0.00,,---,0.55,VWS V14.01,2013-04-15 19:16:00,
2013-04-15 15:21:00,53.8,42.7,30.09,ESE,111,4.9,5.4,66,0.00,,---,0.55,VWS V14.01,2013-04-15 19:21:00,
2013-04-15 15:26:00,53.6,40.5,30.09,ENE,62,2.2,2.2,61,0.00,,---,0.55,VWS V14.01,2013-04-15 19:26:00,
2013-04-15 15:32:00,53.8,41.5,30.09,SE,140,0.0,2.7,63,0.00,,---,0.55,VWS V14.01,2013-04-15 19:32:00,
2013-04-15 15:37:00,54.0,42.1,30.09,SE,140,0.0,0.0,64,0.00,,---,0.55,VWS V14.01,2013-04-15 19:37:00,
2013-04-15 15:42:00,54.1,41.8,30.09,SSW,204,2.7,4.0,63,0.00,,---,0.55,VWS V14.01,2013-04-15 19:42:00,
2013-04-15 15:47:00,54.3,41.2,30.09,NE,44,0.0,2.7,61,0.00,,---,0.55,VWS V14.01,2013-04-15 19:47:00,
2013-04-15 15:52:00,54.5,41.8,30.09,WSW,258,2.7,2.7,62,0.00,,---,0.55,VWS V14.01,2013-04-15 19:52:00,
2013-04-15 15:57:00,54.7,40.2,30.06,ENE,74,2.2,2.2,58,0.00,,---,0.55,VWS V14.01,2013-04-15 19:57:00,
2013-04-15 15:58:00,54.7,39.8,30.06,East,81,2.7,2.7,57,0.00,,---,0.55,VWS V14.01,2013-04-15 19:58:00,
2013-04-15 16:02:00,54.9,41.2,30.06,South,183,0.0,0.0,60,0.00,,---,0.55,VWS V14.01,2013-04-15 20:02:00,
2013-04-15 16:03:00,54.9,41.2,30.06,South,183,0.0,0.0,60,0.00,,---,0.55,VWS V14.01,2013-04-15 20:03:00,
2013-04-15 16:08:00,55.2,40.7,30.06,South,189,0.0,0.0,58,0.00,,---,0.55,VWS V14.01,2013-04-15 20:08:00,
2013-04-15 16:13:00,55.0,39.2,30.09,WSW,244,0.0,0.0,55,0.00,,---,0.55,VWS V14.01,2013-04-15 20:13:00,
2013-04-15 16:18:00,54.9,39.5,30.09,SW,226,3.1,3.1,56,0.00,,---,0.55,VWS V14.01,2013-04-15 20:18:00,
2013-04-15 16:23:00,54.9,39.9,30.09,SW,226,2.2,2.2,57,0.00,,---,0.55,VWS V14.01,2013-04-15 20:23:00,
2013-04-15 16:28:00,55.0,41.0,30.06,SSW,211,2.2,2.2,59,0.00,,---,0.55,VWS V14.01,2013-04-15 20:28:00,
2013-04-15 16:33:00,55.0,38.7,30.06,SSW,205,0.0,0.0,54,0.00,,---,0.55,VWS V14.01,2013-04-15 20:33:00,
2013-04-15 16:38:00,55.0,38.7,30.06,SW,215,0.0,2.2,54,0.00,,---,0.55,VWS V14.01,2013-04-15 20:38:00,
2013-04-15 16:43:00,55.0,38.2,30.06,SSW,201,0.0,0.0,53,0.00,,---,0.55,VWS V14.01,2013-04-15 20:43:00,
2013-04-15 16:48:00,55.0,38.2,30.06,East,96,4.0,5.4,53,0.00,,---,0.55,VWS V14.01,2013-04-15 20:48:00,
2013-04-15 16:53:00,54.9,38.1,30.06,SE,144,0.0,0.0,53,0.00,,---,0.55,VWS V14.01,2013-04-15 20:53:00,
2013-04-15 16:58:00,54.7,38.8,30.06,ENE,68,2.2,3.1,55,0.00,,---,0.55,VWS V14.01,2013-04-15 20:58:00,
2013-04-15 17:03:00,54.7,38.8,30.06,ESE,116,0.0,0.0,55,0.00,,---,0.55,VWS V14.01,2013-04-15 21:03:00,
2013-04-15 17:08:00,54.5,39.1,30.06,ESE,116,0.0,0.0,56,0.00,,---,0.55,VWS V14.01,2013-04-15 21:08:00,
2013-04-15 17:13:00,54.7,39.8,30.09,ESE,116,0.0,0.0,57,0.00,,---,0.55,VWS V14.01,2013-04-15 21:13:00,
2013-04-15 17:19:00,54.7,38.8,30.09,WSW,253,0.0,0.0,55,0.00,,---,0.55,VWS V14.01,2013-04-15 21:19:00,
2013-04-15 17:24:00,54.9,39.0,30.09,SW,233,3.1,3.6,55,0.00,,---,0.55,VWS V14.01,2013-04-15 21:24:00,
2013-04-15 17:29:00,54.9,39.0,30.09,WSW,252,5.4,5.4,55,0.00,,---,0.55,VWS V14.01,2013-04-15 21:29:00,
2013-04-15 17:34:00,54.9,38.1,30.09,WSW,238,3.6,6.3,53,0.00,,---,0.55,VWS V14.01,2013-04-15 21:34:00,
2013-04-15 17:39:00,55.0,38.7,30.09,West,262,4.0,4.5,54,0.00,,---,0.55,VWS V14.01,2013-04-15 21:39:00,
2013-04-15 17:44:00,55.0,38.2,30.09,WSW,238,3.6,3.6,53,0.00,,---,0.55,VWS V14.01,2013-04-15 21:44:00,
2013-04-15 17:49:00,55.0,38.2,30.09,WNW,285,2.2,3.1,53,0.00,,---,0.55,VWS V14.01,2013-04-15 21:49:00,
2013-04-15 17:54:00,55.0,38.7,30.09,WNW,286,0.0,0.0,54,0.00,,---,0.55,VWS V14.01,2013-04-15 21:54:00,
2013-04-15 17:59:00,55.0,39.2,30.09,WNW,286,0.0,0.0,55,0.00,,---,0.55,VWS V14.01,2013-04-15 21:59:00,
2013-04-15 18:04:00,54.9,39.9,30.09,WNW,286,0.0,0.0,57,0.00,,---,0.55,VWS V14.01,2013-04-15 22:04:00,
2013-04-15 18:09:00,54.7,39.8,30.09,WNW,286,0.0,0.0,57,0.00,,---,0.55,VWS V14.01,2013-04-15 22:09:00,
2013-04-15 18:14:00,54.7,40.2,30.09,NNW,335,0.0,0.0,58,0.00,,---,0.55,VWS V14.01,2013-04-15 22:14:00,
2013-04-15 18:19:00,54.5,40.0,30.09,NNW,335,0.0,0.0,58,0.00,,---,0.55,VWS V14.01,2013-04-15 22:19:00,
2013-04-15 18:24:00,54.5,40.0,30.09,NNW,335,0.0,0.0,58,0.00,,---,0.55,VWS V14.01,2013-04-15 22:24:00,
2013-04-15 18:29:00,54.5,40.0,30.06,NNW,335,0.0,0.0,58,0.00,,---,0.55,VWS V14.01,2013-04-15 22:29:00,
2013-04-15 18:34:00,54.5,40.0,30.06,NNW,335,0.0,0.0,58,0.00,,---,0.55,VWS V14.01,2013-04-15 22:34:00,
2013-04-15 18:39:00,54.3,39.9,30.06,NNW,335,0.0,0.0,58,0.00,,---,0.55,VWS V14.01,2013-04-15 22:39:00,
2013-04-15 18:44:00,54.3,40.3,30.09,NNW,335,0.0,0.0,59,0.00,,---,0.55,VWS V14.01,2013-04-15 22:44:00,
2013-04-15 18:49:00,54.1,40.6,30.09,NNW,335,0.0,0.0,60,0.00,,---,0.55,VWS V14.01,2013-04-15 22:49:00,
2013-04-15 18:54:00,54.1,41.0,30.09,NNW,335,0.0,0.0,61,0.00,,---,0.55,VWS V14.01,2013-04-15 22:54:00,
2013-04-15 18:59:00,54.0,41.2,30.09,NNW,335,0.0,0.0,62,0.00,,---,0.55,VWS V14.01,2013-04-15 22:59:00,
2013-04-15 19:04:00,53.8,41.9,30.09,NNW,335,0.0,0.0,64,0.00,,---,0.55,VWS V14.01,2013-04-15 23:04:00,
2013-04-15 19:09:00,53.6,41.7,30.09,NNW,335,0.0,0.0,64,0.00,,---,0.55,VWS V14.01,2013-04-15 23:09:00,
2013-04-15 19:14:00,53.6,42.5,30.09,NNW,335,0.0,0.0,66,0.00,,---,0.55,VWS V14.01,2013-04-15 23:14:00,
2013-04-15 19:19:00,53.4,42.8,30.09,NNW,335,0.0,0.0,67,0.00,,---,0.55,VWS V14.01,2013-04-15 23:19:00,
2013-04-15 19:24:00,53.2,43.0,30.09,NNW,335,0.0,0.0,68,0.00,,---,0.55,VWS V14.01,2013-04-15 23:24:00,
2013-04-15 19:29:00,53.1,42.8,30.09,NNW,335,0.0,0.0,68,0.00,,---,0.55,VWS V14.01,2013-04-15 23:29:00,
2013-04-15 19:34:00,53.1,43.2,30.09,NNW,335,0.0,0.0,69,0.00,,---,0.55,VWS V14.01,2013-04-15 23:34:00,
2013-04-15 19:39:00,53.1,43.2,30.09,NNW,335,0.0,0.0,69,0.00,,---,0.55,VWS V14.01,2013-04-15 23:39:00,
2013-04-15 19:44:00,52.9,43.4,30.09,NNW,335,0.0,0.0,70,0.00,,---,0.55,VWS V14.01,2013-04-15 23:44:00,
2013-04-15 19:49:00,52.9,43.4,30.09,NNW,335,0.0,0.0,70,0.00,,---,0.55,VWS V14.01,2013-04-15 23:49:00,
2013-04-15 19:54:00,52.9,43.4,30.09,NNW,335,0.0,0.0,70,0.00,,---,0.55,VWS V14.01,2013-04-15 23:54:00,
2013-04-15 19:59:00,52.7,43.6,30.09,NNW,335,0.0,0.0,71,0.00,,---,0.55,VWS V14.01,2013-04-15 23:59:00,
2013-04-15 20:04:00,52.7,43.6,30.09,NNW,335,0.0,0.0,71,0.00,,---,0.55,VWS V14.01,2013-04-16 00:04:00,
2013-04-15 20:09:00,52.5,43.8,30.09,NNW,335,0.0,0.0,72,0.00,,---,0.55,VWS V14.01,2013-04-16 00:09:00,
2013-04-15 20:15:00,52.7,43.9,30.09,West,267,3.6,3.6,72,0.00,,---,0.55,VWS V14.01,2013-04-16 00:15:00,
2013-04-15 20:20:00,53.1,43.9,30.09,West,268,4.0,4.0,71,0.00,,---,0.55,VWS V14.01,2013-04-16 00:20:00,
2013-04-15 20:25:00,53.2,43.0,30.09,WSW,247,3.6,4.0,68,0.00,,---,0.55,VWS V14.01,2013-04-16 00:25:00,
2013-04-15 20:30:00,53.6,42.1,30.09,WSW,247,5.8,6.3,65,0.00,,---,0.55,VWS V14.01,2013-04-16 00:30:00,
2013-04-15 20:35:00,53.8,41.9,30.09,West,274,2.7,2.7,64,0.00,,---,0.55,VWS V14.01,2013-04-16 00:35:00,
2013-04-15 20:40:00,53.8,41.9,30.09,WSW,248,3.6,3.6,64,0.00,,---,0.55,VWS V14.01,2013-04-16 00:40:00,
2013-04-15 20:45:00,53.8,41.9,30.12,NW,314,2.2,3.1,64,0.00,,---,0.55,VWS V14.01,2013-04-16 00:45:00,
2013-04-15 20:50:00,54.0,41.7,30.12,NE,34,2.7,4.0,63,0.00,,---,0.55,VWS V14.01,2013-04-16 00:50:00,
2013-04-15 20:55:00,54.0,41.7,30.12,NNE,15,6.3,6.3,63,0.00,,---,0.55,VWS V14.01,2013-04-16 00:55:00,
2013-04-15 21:00:00,54.0,41.7,30.12,NNE,28,4.0,5.8,63,0.00,,---,0.55,VWS V14.01,2013-04-16 01:00:00,
2013-04-15 21:05:00,54.1,41.8,30.12,North,11,4.9,6.3,63,0.00,,---,0.55,VWS V14.01,2013-04-16 01:05:00,
2013-04-15 21:10:00,54.0,41.7,30.12,NNW,339,2.7,2.7,63,0.00,,---,0.55,VWS V14.01,2013-04-16 01:10:00,
2013-04-15 21:15:00,54.1,41.8,30.12,East,98,2.2,3.6,63,0.00,,---,0.55,VWS V14.01,2013-04-16 01:15:00,
2013-04-15 21:20:00,54.1,41.4,30.12,NW,310,2.7,4.9,62,0.00,,---,0.55,VWS V14.01,2013-04-16 01:20:00,
2013-04-15 21:25:00,54.1,41.8,30.12,West,265,0.0,2.2,63,0.00,,---,0.55,VWS V14.01,2013-04-16 01:25:00,
2013-04-15 21:30:00,54.1,41.8,30.12,West,273,6.3,6.3,63,0.00,,---,0.55,VWS V14.01,2013-04-16 01:30:00,
2013-04-15 21:35:00,54.1,41.8,30.12,North,353,5.8,5.8,63,0.00,,---,0.55,VWS V14.01,2013-04-16 01:35:00,
2013-04-15 21:40:00,54.1,41.8,30.12,NNE,23,3.6,3.6,63,0.00,,---,0.55,VWS V14.01,2013-04-16 01:40:00,
2013-04-15 21:45:00,54.1,41.8,30.12,WSW,245,3.1,3.1,63,0.00,,---,0.55,VWS V14.01,2013-04-16 01:45:00,
2013-04-15 21:50:00,54.1,41.8,30.12,NNE,30,3.6,3.6,63,0.00,,---,0.55,VWS V14.01,2013-04-16 01:50:00,
2013-04-15 21:55:00,54.1,41.8,30.12,ENE,61,3.6,4.0,63,0.00,,---,0.55,VWS V14.01,2013-04-16 01:55:00,
2013-04-15 22:00:00,54.1,42.2,30.12,NNE,32,4.0,4.0,64,0.00,,---,0.55,VWS V14.01,2013-04-16 02:00:00,
2013-04-15 22:05:00,54.0,42.1,30.12,NE,48,0.0,0.0,64,0.00,,---,0.55,VWS V14.01,2013-04-16 02:05:00,
2013-04-15 22:10:00,53.8,41.9,30.12,NE,54,3.1,4.5,64,0.00,,---,0.55,VWS V14.01,2013-04-16 02:10:00,
2013-04-15 22:15:00,53.8,42.3,30.12,NNE,28,4.0,4.0,65,0.00,,---,0.55,VWS V14.01,2013-04-16 02:15:00,
2013-04-15 22:20:00,54.0,42.5,30.12,NE,48,0.0,2.7,65,0.00,,---,0.55,VWS V14.01,2013-04-16 02:20:00,
2013-04-15 22:25:00,54.0,42.5,30.12,West,277,4.0,4.0,65,0.00,,---,0.55,VWS V14.01,2013-04-16 02:25:00,
2013-04-15 22:30:00,54.0,42.5,30.12,SW,218,4.0,4.9,65,0.00,,---,0.55,VWS V14.01,2013-04-16 02:30:00,
2013-04-15 22:35:00,54.1,42.2,30.12,WNW,294,3.6,5.4,64,0.00,,---,0.55,VWS V14.01,2013-04-16 02:35:00,
2013-04-15 22:40:00,54.1,42.2,30.12,WSW,257,2.2,2.2,64,0.00,,---,0.55,VWS V14.01,2013-04-16 02:40:00,
2013-04-15 22:45:00,54.0,42.5,30.15,West,276,4.0,4.9,65,0.00,,---,0.55,VWS V14.01,2013-04-16 02:45:00,
2013-04-15 22:51:00,54.0,42.5,30.15,WSW,238,2.7,3.6,65,0.00,,---,0.55,VWS V14.01,2013-04-16 02:51:00,
2013-04-15 22:56:00,54.0,42.5,30.15,WSW,238,0.0,0.0,65,0.00,,---,0.55,VWS V14.01,2013-04-16 02:56:00,
2013-04-15 23:01:00,53.6,42.1,30.15,WSW,238,0.0,0.0,65,0.00,,---,0.55,VWS V14.01,2013-04-16 03:01:00,
2013-04-15 23:06:00,53.2,42.6,30.15,WSW,238,0.0,0.0,67,0.00,,---,0.55,VWS V14.01,2013-04-16 03:06:00,
2013-04-15 23:11:00,53.1,42.4,30.15,WSW,238,0.0,0.0,67,0.00,,---,0.55,VWS V14.01,2013-04-16 03:11:00,
2013-04-15 23:16:00,53.1,42.8,30.15,WSW,238,0.0,0.0,68,0.00,,---,0.55,VWS V14.01,2013-04-16 03:16:00,
2013-04-15 23:21:00,52.9,42.6,30.15,WSW,238,0.0,0.0,68,0.00,,---,0.55,VWS V14.01,2013-04-16 03:21:00,
2013-04-15 23:26:00,52.7,42.8,30.15,WSW,238,0.0,0.0,69,0.00,,---,0.55,VWS V14.01,2013-04-16 03:26:00,
2013-04-15 23:31:00,52.7,43.2,30.15,WSW,238,0.0,0.0,70,0.00,,---,0.55,VWS V14.01,2013-04-16 03:31:00,
2013-04-15 23:36:00,52.7,43.2,30.15,WSW,238,0.0,0.0,70,0.00,,---,0.55,VWS V14.01,2013-04-16 03:36:00,
2013-04-15 23:41:00,52.5,43.4,30.15,WSW,238,0.0,0.0,71,0.00,,---,0.55,VWS V14.01,2013-04-16 03:41:00,
2013-04-15 23:46:00,52.5,43.8,30.15,WSW,238,0.0,0.0,72,0.00,,---,0.55,VWS V14.01,2013-04-16 03:46:00,
2013-04-15 23:51:00,52.5,43.8,30.15,WSW,238,0.0,0.0,72,0.00,,---,0.55,VWS V14.01,2013-04-16 03:51:00,
2013-04-15 23:56:00,52.5,43.8,30.15,WSW,238,0.0,0.0,72,0.00,,---,0.55,VWS V14.01,2013-04-16 03:56:00,